• Join FlightAware (Why Join?)
  • Login
  • US Flag 
12:37AM EDT


 

Airport Tracker/Info


-or-


 

Live Flight TrackerFlight Track Log ✈ UAL4583 ✈ 14-Jun-2014 ✈ KEWR - KPWM

Flight Track Log - Related Links

Times and Time Zones

All times are in EDT time to prevent confusion due to time zone crossing. See the UAL4583 flight status page for this flight to view local times or setup timezone preferences in your user account.

Time Position Orientation Groundspeed Altitude Reporting Facility
EDT Latitude Longitude Course Direction KTS MPH feet Rate Location/Type
08:28AM 40.6333 -74.1833 58° Northeast 185 213 1,700  Level New York TRACON
08:29AM 40.6000 -74.2500 237° Southwest 245 282 3,400 1,860 Climbing New York TRACON
08:30AM 40.6667 -74.2333 11° North 239 275 5,500 1,320 Climbing New York TRACON
08:31AM 40.7333 -74.1833 30° Northeast 283 326 6,100 300 Climbing New York TRACON
08:32AM 40.7833 -74.1167 45° Northeast 280 322 6,100  Level New York TRACON
08:33AM 40.8167 -74.0333 62° Northeast 282 325 6,100 660 Level New York TRACON
08:34AM 40.7124 -74.1258 58° Northeast  Level FlightAware Approximate
08:34AM 40.8667 -73.9333 57° Northeast 286 329 7,500  Level New York TRACON
08:35AM 40.9167 -73.8667 45° Northeast 299 344 9,600 2,040 Climbing New York TRACON
08:36AM 40.9833 -73.8000 37° Northeast 299 344 11,600 1,860 Climbing New York TRACON
08:38AM 41.1125 -73.6750 36° Northeast 327 376 14,600 1,680 Climbing New York Center
08:39AM 41.1686 -73.6192 37° Northeast 326 375 15,800 1,260 Climbing Boston Center
08:40AM 41.2467 -73.5433 36° Northeast 345 397 16,900 1,080 Climbing Boston Center
08:41AM 41.3300 -73.4606 37° Northeast 370 426 18,000 1,080 Climbing Boston Center
08:42AM 41.4161 -73.3772 36° Northeast 390 449 19,100 1,020 Climbing Boston Center
08:43AM 41.5042 -73.2822 39° Northeast 403 464 20,200 900 Climbing Boston Center
08:44AM 41.5844 -73.1828 43° Northeast 411 473 21,000 360 Climbing Boston Center
08:45AM 41.7039 -73.1636 North 436 502 21,000  Level Boston Center
08:46AM 41.8294 -73.1806 354° North 447 514 21,000  Level Boston Center
08:47AM 41.9822 -73.2014 354° North 456 525 21,000  Level Boston Center
08:48AM 42.1106 -73.2186 354° North 460 529 21,000  Level Boston Center
08:49AM 42.2383 -73.2381 354° North 460 529 21,000  Level Boston Center
08:50AM 42.3669 -73.2514 356° North 460 529 21,000  Level Boston Center
08:51AM 42.4811 -73.1728 27° Northeast 461 531 21,000  Level Boston Center
08:52AM 42.5572 -73.0256 55° Northeast 462 532 21,000  Level Boston Center
08:53AM 42.6264 -72.8836 56° Northeast 460 529 21,000  Level Boston Center
08:54AM 42.6964 -72.7419 56° Northeast 457 526 21,000  Level Boston Center
08:55AM 42.7633 -72.6064 56° Northeast 456 525 21,000  Level Boston Center
08:56AM 42.8336 -72.4622 56° Northeast 456 525 21,000  Level Boston Center
08:57AM 42.9025 -72.3197 57° Northeast 455 524 21,000  Level Boston Center
08:58AM 42.9792 -72.1628 56° Northeast 455 524 21,000  Level Boston Center
08:59AM 43.0483 -72.0172 57° Northeast 455 524 21,000  Level Boston Center
09:00AM 43.1183 -71.8742 56° Northeast 456 525 21,000 -180 Level Boston Center
09:01AM 43.1881 -71.7303 56° Northeast 456 525 20,700 -1,380 Descending Boston Center
09:02AM 43.2661 -71.5614 58° Northeast 437 503 18,300 -2,700 Descending Boston Center
09:03AM 43.3303 -71.4264 57° Northeast 425 489 15,300 -2,760 Descending Boston Center
09:04AM 43.3917 -71.2953 57° Northeast 413 475 12,600 -2,100 Descending Boston Center
09:05AM 43.4475 -71.1750 57° Northeast 379 436 11,000 -840 Descending Boston Center
09:06AM 43.4917 -71.0369 66° East 368 423 11,000 -60 Level Boston Center
09:07AM 43.5289 -70.8997 69° East 382 440 10,900 -420 Descending Boston Center
09:08AM 43.5353 -70.7808 86° East 312 359 10,200 -1,200 Descending Boston Center
09:09AM 43.5306 -70.6678 93° East 298 343 8,500 -1,800 Descending Boston Center
09:10AM 43.5233 -70.5514 95° East 290 334 6,600 -1,740 Descending Boston Center
09:11AM 43.5183 -70.4436 94° East 287 330 5,000 -1,320 Descending Boston Center
09:12AM 43.5119 -70.3428 95° East 271 312 4,000 -540 Descending Boston Center
09:13AM 43.5075 -70.2503 94° East 222 255 4,000 -360 Level Boston Center
09:14AM 43.5050 -70.1783 93° East 192 221 3,300 -1,080 Descending Boston Center
09:15AM 43.5244 -70.1081 69° East 198 228 1,900 -780 Descending Boston Center
09:16AM 43.5792 -70.1011 North 182 209 1,800 -60 Descending Boston Center
09:18AM 43.6197 -70.1203 341° North 170 196 1,800  Level Boston Center
09:19AM 43.6350 -70.1656 295° West 135 155 1,800 -300 Level Boston Center
09:20AM 43.6378 -70.2167 274° West 135 155 1,200 -660 Descending Boston Center
09:21AM 43.6419 -70.2736 276° West 135 155 500 -600 Descending Boston Center
09:22AM 43.6453 -70.3242 275° West 135 155 100 -420 Descending Boston Center